createdAt,value
2019-02-16T00:03:31.958Z,8.43
2019-02-16T00:07:30.533Z,10.13
2019-02-16T00:11:29.308Z,5.80
2019-02-16T00:15:27.905Z,11.40
2019-02-16T00:19:26.497Z,9.37
2019-02-16T00:23:27.830Z,12.63
2019-02-16T00:27:26.473Z,8.23
2019-02-16T00:31:25.125Z,8.27
2019-02-16T00:35:23.720Z,10.00
2019-02-16T00:39:22.345Z,9.07
2019-02-16T00:43:20.924Z,9.73
2019-02-16T00:47:19.514Z,9.27
2019-02-16T00:51:18.084Z,9.13
2019-02-16T00:55:16.672Z,9.23
2019-02-16T00:59:25.108Z,11.17
2019-02-16T01:03:23.613Z,8.97
2019-02-16T01:07:22.207Z,6.93
2019-02-16T01:11:20.780Z,10.93
2019-02-16T01:15:19.348Z,10.83
2019-02-16T01:19:17.933Z,10.67
2019-02-16T01:23:16.508Z,10.20
2019-02-16T01:27:15.107Z,10.27
2019-02-16T01:31:16.749Z,11.43
2019-02-16T01:35:15.414Z,10.37
2019-02-16T01:39:14.451Z,8.20
2019-02-16T01:43:16.292Z,10.57
2019-02-16T01:47:16.811Z,7.80
2019-02-16T01:51:15.409Z,12.83
2019-02-16T01:55:14.449Z,11.20
2019-02-16T01:59:13.360Z,8.47
2019-02-16T02:03:13.016Z,9.80
2019-02-16T02:07:12.024Z,9.77
2019-02-16T02:11:10.649Z,11.67
2019-02-16T02:15:10.694Z,10.20
2019-02-16T02:19:13.274Z,7.63
2019-02-16T02:23:12.670Z,9.73
2019-02-16T02:27:11.391Z,8.93
2019-02-16T02:31:09.989Z,10.03
2019-02-16T02:35:10.013Z,10.80
2019-02-16T02:39:09.774Z,9.20
2019-02-16T02:43:15.597Z,9.13
2019-02-16T02:47:14.243Z,9.53
2019-02-16T02:51:12.959Z,11.60
2019-02-16T02:55:12.737Z,8.17
2019-02-16T02:59:11.402Z,7.37
2019-02-16T03:03:10.411Z,10.83
2019-02-16T03:07:09.412Z,12.33
2019-02-16T03:11:09.863Z,8.53
2019-02-16T03:15:10.805Z,11.20
2019-02-16T03:19:09.458Z,7.23
2019-02-16T03:23:12.962Z,14.20
2019-02-16T03:27:20.631Z,12.90
2019-02-16T03:31:52.312Z,8.13
2019-02-16T03:36:03.275Z,8.67
2019-02-16T03:40:01.935Z,9.80
2019-02-16T03:44:00.651Z,9.17
2019-02-16T03:48:00.320Z,7.60
2019-02-16T03:51:58.964Z,7.67
2019-02-16T03:56:00.425Z,9.03
2019-02-16T03:59:59.055Z,8.93
2019-02-16T04:03:57.682Z,7.93
2019-02-16T04:07:56.327Z,13.37
2019-02-16T04:11:54.994Z,8.27
2019-02-16T04:15:53.905Z,9.53
2019-02-16T04:19:52.518Z,9.43
2019-02-16T04:23:51.295Z,8.40
2019-02-16T04:27:49.847Z,9.03
2019-02-16T04:31:48.502Z,10.20
2019-02-16T04:35:47.060Z,8.30
2019-02-16T04:39:45.909Z,8.20
2019-02-16T04:43:44.513Z,10.60
2019-02-16T04:47:43.130Z,13.40
2019-02-16T04:51:41.737Z,9.80
2019-02-16T04:55:40.296Z,6.97
2019-02-16T04:59:38.869Z,10.07
2019-02-16T05:03:37.796Z,11.93
2019-02-16T05:07:36.346Z,7.83
2019-02-16T05:11:34.958Z,7.57
2019-02-16T05:15:33.547Z,9.80
2019-02-16T05:19:37.107Z,11.87
2019-02-16T05:23:35.804Z,11.30
2019-02-16T05:27:34.424Z,8.93
2019-02-16T05:31:33.013Z,8.07
2019-02-16T05:35:31.645Z,8.57
2019-02-16T05:39:31.764Z,7.00
2019-02-16T05:43:31.051Z,10.17
2019-02-16T05:47:32.607Z,11.87
2019-02-16T05:51:31.176Z,12.43
2019-02-16T05:55:29.747Z,8.43
2019-02-16T05:59:28.317Z,9.57
2019-02-16T06:03:27.249Z,8.80
2019-02-16T06:07:25.851Z,10.60
2019-02-16T06:11:25.335Z,11.00
2019-02-16T06:15:25.559Z,10.67
2019-02-16T06:19:27.336Z,12.67
2019-02-16T06:23:28.025Z,11.00
2019-02-16T06:27:26.611Z,10.63
2019-02-16T06:31:25.186Z,10.37
2019-02-16T06:35:34.398Z,11.70
2019-02-16T06:39:33.021Z,11.50
2019-02-16T06:43:31.839Z,10.03
2019-02-16T06:47:30.441Z,10.07
2019-02-16T06:51:29.056Z,13.37
2019-02-16T06:55:29.306Z,9.13
2019-02-16T06:59:27.918Z,12.17
2019-02-16T07:03:29.546Z,9.87
2019-02-16T07:07:28.242Z,8.07
2019-02-16T07:11:26.813Z,11.63
2019-02-16T07:15:25.370Z,7.97
2019-02-16T07:19:28.022Z,12.47
2019-02-16T07:23:28.486Z,9.87
2019-02-16T07:27:27.070Z,9.73
2019-02-16T07:31:25.675Z,10.30
2019-02-16T07:35:24.561Z,9.00
2019-02-16T07:39:23.458Z,8.80
2019-02-16T07:43:35.688Z,8.50
2019-02-16T07:47:44.637Z,8.93
2019-02-16T07:51:47.432Z,10.63
2019-02-16T07:55:54.041Z,9.57
2019-02-16T07:59:54.242Z,8.83
2019-02-16T08:03:57.652Z,15.27
2019-02-16T08:08:14.479Z,8.27
2019-02-16T08:12:14.752Z,8.93
2019-02-16T08:16:23.910Z,13.03
2019-02-16T08:20:36.392Z,10.20
2019-02-16T08:24:39.777Z,10.00
2019-02-16T08:28:46.012Z,10.53
2019-02-16T08:32:51.761Z,7.90
2019-02-16T08:36:57.762Z,12.13
2019-02-16T08:41:00.624Z,18.37
2019-02-16T08:45:15.681Z,11.07
2019-02-16T08:49:27.777Z,15.70
2019-02-16T08:53:49.755Z,9.83
2019-02-16T08:57:46.581Z,11.27
2019-02-16T09:01:47.329Z,14.67
2019-02-16T09:05:47.551Z,7.43
2019-02-16T09:09:57.215Z,9.83
2019-02-16T09:14:13.618Z,13.33
2019-02-16T09:18:26.098Z,11.70
2019-02-16T09:22:35.374Z,10.30
2019-02-16T09:26:35.573Z,8.77
2019-02-16T09:30:41.607Z,7.87
2019-02-16T09:34:53.728Z,8.70
2019-02-16T09:38:56.805Z,11.00
2019-02-16T09:42:57.028Z,8.30
2019-02-16T09:47:00.603Z,9.90
2019-02-16T09:51:00.847Z,9.77
2019-02-16T09:55:09.738Z,8.70
2019-02-16T09:59:13.334Z,7.97
2019-02-16T10:03:29.480Z,6.53
2019-02-16T10:07:46.245Z,11.17
2019-02-16T10:11:46.502Z,10.10
2019-02-16T10:15:52.952Z,9.73
2019-02-16T10:19:53.179Z,13.60
2019-02-16T10:24:05.265Z,12.00
2019-02-16T10:28:05.652Z,11.33
2019-02-16T10:32:05.847Z,12.40
2019-02-16T10:36:06.145Z,10.80
2019-02-16T10:40:07.535Z,15.77
2019-02-16T10:44:10.292Z,15.60
2019-02-16T10:48:12.493Z,14.57
2019-02-16T10:52:12.732Z,18.37
2019-02-16T10:56:29.490Z,14.20
2019-02-16T11:00:33.127Z,19.30
2019-02-16T11:04:38.522Z,19.57
2019-02-16T11:08:38.280Z,18.73
2019-02-16T11:12:41.443Z,16.63
2019-02-16T11:16:57.914Z,20.80
2019-02-16T11:21:04.144Z,24.73
2019-02-16T11:25:07.322Z,23.03
2019-02-16T11:29:11.189Z,21.17
2019-02-16T11:33:14.433Z,19.13
2019-02-16T11:37:20.758Z,19.40
2019-02-16T11:41:23.732Z,24.53
2019-02-16T11:45:23.949Z,19.30
2019-02-16T11:49:24.198Z,20.67
2019-02-16T11:53:40.639Z,22.63
2019-02-16T11:58:01.964Z,20.80
2019-02-16T12:02:05.041Z,22.17
2019-02-16T12:06:08.414Z,20.93
2019-02-16T12:10:12.333Z,22.60
2019-02-16T12:14:18.088Z,21.13
2019-02-16T12:18:27.286Z,24.10
2019-02-16T12:22:39.397Z,17.97
2019-02-16T12:26:58.509Z,19.30
2019-02-16T12:31:04.552Z,18.27
2019-02-16T12:35:16.825Z,19.57
2019-02-16T12:39:17.069Z,22.17
2019-02-16T12:43:23.001Z,23.10
2019-02-16T12:47:23.240Z,21.17
2019-02-16T12:51:23.456Z,20.17
2019-02-16T12:55:29.731Z,18.60
2019-02-16T12:59:41.973Z,22.87
2019-02-16T13:03:54.881Z,24.17
2019-02-16T13:07:55.437Z,20.77
2019-02-16T13:12:22.013Z,18.80
2019-02-16T13:16:28.170Z,22.77
2019-02-16T13:20:37.314Z,19.27
2019-02-16T13:24:43.629Z,19.23
2019-02-16T13:28:59.233Z,19.30
2019-02-16T13:33:08.277Z,20.27
2019-02-16T13:37:09.839Z,18.20
2019-02-16T13:41:10.065Z,20.80
2019-02-16T13:45:13.040Z,19.67
2019-02-16T13:49:13.631Z,20.93
2019-02-16T13:53:20.082Z,23.40
2019-02-16T13:57:20.293Z,16.33
2019-02-16T14:01:34.121Z,21.40
2019-02-16T14:05:52.217Z,20.00
2019-02-16T14:10:07.350Z,20.17
2019-02-16T14:14:13.695Z,21.00
2019-02-16T14:18:12.603Z,22.20
2019-02-16T14:22:11.204Z,23.17
2019-02-16T14:26:09.773Z,26.87
2019-02-16T14:30:10.880Z,27.77
2019-02-16T14:34:09.478Z,23.87
2019-02-16T14:38:12.138Z,23.20
2019-02-16T14:42:10.701Z,24.27
2019-02-16T14:46:09.312Z,26.53
2019-02-16T14:50:10.361Z,23.23
2019-02-16T14:54:09.070Z,26.97
2019-02-16T14:58:07.670Z,25.00
2019-02-16T15:02:16.815Z,30.70
2019-02-16T15:06:15.393Z,26.57
2019-02-16T15:10:14.855Z,29.07
2019-02-16T15:14:13.453Z,30.10
2019-02-16T15:18:12.093Z,23.53
2019-02-16T15:22:14.137Z,28.47
2019-02-16T15:26:12.810Z,27.17
2019-02-16T15:30:19.651Z,28.60
2019-02-16T15:34:18.230Z,20.93
2019-02-16T15:38:16.835Z,24.03
2019-02-16T15:42:15.430Z,30.92
2019-02-16T15:46:13.997Z,32.42
2019-02-16T15:50:16.397Z,24.07
2019-02-16T15:54:15.076Z,28.67
2019-02-16T15:58:13.782Z,29.07
2019-02-16T16:02:13.206Z,31.47
2019-02-16T16:06:12.116Z,27.40
2019-02-16T16:10:12.451Z,25.97
2019-02-16T16:14:15.253Z,27.03
2019-02-16T16:18:30.549Z,27.10
2019-02-16T16:22:36.592Z,24.97
2019-02-16T16:26:46.292Z,30.83
2019-02-16T16:30:58.722Z,28.63
2019-02-16T16:35:16.953Z,27.53
2019-02-16T16:39:19.799Z,29.80
2019-02-16T16:43:21.549Z,30.23
2019-02-16T16:47:22.623Z,27.73
2019-02-16T16:51:25.619Z,26.37
2019-02-16T16:55:34.736Z,33.00
2019-02-16T16:59:46.977Z,48.33
2019-02-16T17:03:58.933Z,31.93
2019-02-16T17:07:59.172Z,29.80
2019-02-16T17:11:59.384Z,32.50
2019-02-16T17:16:02.838Z,43.03
2019-02-16T17:20:05.789Z,44.17
2019-02-16T17:24:06.186Z,26.40
2019-02-16T17:28:22.715Z,27.50
2019-02-16T17:36:43.619Z,25.23
2019-02-16T17:40:43.801Z,28.73
2019-02-16T17:44:52.926Z,25.80
2019-02-16T17:49:12.474Z,43.50
2019-02-16T17:53:21.823Z,51.63
2019-02-16T17:57:22.104Z,36.10
2019-02-16T18:01:38.934Z,83.23
2019-02-16T18:05:54.106Z,148.23
2019-02-16T18:10:03.311Z,107.13
2019-02-16T18:14:19.455Z,202.70
2019-02-16T18:18:19.746Z,130.93
2019-02-16T18:22:25.503Z,42.63
2019-02-16T18:26:43.964Z,29.87
2019-02-16T18:30:53.064Z,28.97
2019-02-16T18:35:02.180Z,28.13
2019-02-16T18:39:08.465Z,28.77
2019-02-16T18:43:26.642Z,31.53
2019-02-16T18:47:27.275Z,30.83
2019-02-16T18:51:42.773Z,34.27
2019-02-16T18:55:48.487Z,27.63
2019-02-16T18:59:54.819Z,30.20
2019-02-16T19:03:55.339Z,28.73
2019-02-16T19:07:58.232Z,28.50
2019-02-16T19:12:13.691Z,32.13
2019-02-16T19:16:28.853Z,32.33
2019-02-16T19:24:57.608Z,30.70
2019-02-16T19:29:00.494Z,32.50
2019-02-16T19:33:06.544Z,28.20
2019-02-16T19:37:12.745Z,33.00
2019-02-16T19:41:15.670Z,29.50
2019-02-16T19:45:16.377Z,33.10
2019-02-16T19:49:31.250Z,31.97
2019-02-16T19:53:33.242Z,42.27
2019-02-16T19:57:33.459Z,54.97
2019-02-16T20:01:42.562Z,35.20
2019-02-16T20:05:46.020Z,45.13
2019-02-16T20:09:46.219Z,37.13
2019-02-16T20:14:02.669Z,34.43
2019-02-16T20:18:02.879Z,36.73
2019-02-16T20:22:17.984Z,41.17
2019-02-16T20:26:34.155Z,33.93
2019-02-16T20:30:37.320Z,35.30
2019-02-16T20:34:40.570Z,32.47
2019-02-16T20:38:53.076Z,33.33
2019-02-16T20:42:53.288Z,45.40
2019-02-16T20:46:58.856Z,39.27
2019-02-16T20:51:01.590Z,43.17
2019-02-16T20:55:01.779Z,43.00
2019-02-16T20:59:01.970Z,40.40
2019-02-16T21:03:20.207Z,47.27
2019-02-16T21:07:20.422Z,36.27
2019-02-16T21:11:20.630Z,38.03
2019-02-16T21:15:23.797Z,35.03
2019-02-16T21:19:24.041Z,34.87
2019-02-16T21:23:40.627Z,35.90
2019-02-16T21:27:46.808Z,38.20
2019-02-16T21:31:52.977Z,34.27
2019-02-16T21:36:10.475Z,31.20
2019-02-16T21:40:03.954Z,35.63
2019-02-16T21:44:20.341Z,33.33
2019-02-16T21:48:26.257Z,39.87
2019-02-16T21:52:29.126Z,39.27
2019-02-16T21:56:45.667Z,35.03
2019-02-16T22:00:57.749Z,35.00
2019-02-16T22:05:10.265Z,36.13
2019-02-16T22:09:13.767Z,36.47
2019-02-16T22:13:12.713Z,36.67
2019-02-16T22:17:11.301Z,31.40
2019-02-16T22:21:09.855Z,36.90
2019-02-16T22:25:08.978Z,39.60
2019-02-16T22:29:07.584Z,34.87
2019-02-16T22:33:06.132Z,36.83
2019-02-16T22:37:04.659Z,32.10
2019-02-16T22:41:03.197Z,35.90
2019-02-16T22:45:02.174Z,39.87
2019-02-16T22:49:01.173Z,29.50
2019-02-16T22:52:59.742Z,30.13
2019-02-16T22:56:59.708Z,29.80
2019-02-16T23:00:59.178Z,29.80
2019-02-16T23:04:57.722Z,29.73
2019-02-16T23:08:56.976Z,32.30
2019-02-16T23:12:55.513Z,32.80
2019-02-16T23:16:54.133Z,29.77
2019-02-16T23:20:52.696Z,28.37
2019-02-16T23:24:55.509Z,28.03
2019-02-16T23:28:51.481Z,33.90
2019-02-16T23:32:50.138Z,28.70
2019-02-16T23:36:48.628Z,30.43
2019-02-16T23:40:47.210Z,30.90
2019-02-16T23:44:45.769Z,28.93
2019-02-16T23:48:44.331Z,30.43
2019-02-16T23:52:42.907Z,25.27
2019-02-16T23:56:41.820Z,33.10
